Time;durP1;ratioP1;P1;durP2;ratioP2;P2;SDS_P1;SDS_P2;PMS_P1;PMS_P2;Temp;Humidity;BMP_temperature;BMP_pressure;BME280_temperature;BME280_humidity;BME280_pressure;Samples;Min_cycle;Max_cycle;Signal;HPM_P1;HPM_P2
2021/04/08 00:02:24;;;;;;;8.98;5.15;;;;;;;4.25;69.53;100046.25;5067342;28;20103;-22
2021/04/08 00:04:49;;;;;;;9.32;5.13;;;;;;;4.49;68.51;100032.00;5067405;28;20039;-21
2021/04/08 00:07:15;;;;;;;9.85;5.30;;;;;;;4.62;69.52;100045.44;5067358;28;20036;-21
2021/04/08 00:09:40;;;;;;;9.27;5.15;;;;;;;4.91;68.34;100054.38;5067081;28;20135;-21
2021/04/08 00:12:07;;;;;;;7.95;4.53;;;;;;;4.73;68.93;100041.50;5067039;28;20481;-20
2021/04/08 00:14:32;;;;;;;8.55;4.80;;;;;;;4.75;68.10;100045.59;5067455;28;20036;-20
2021/04/08 00:16:58;;;;;;;8.57;5.35;;;;;;;5.06;68.08;100038.50;5067515;28;20326;-22
2021/04/08 00:19:23;;;;;;;10.20;5.68;;;;;;;5.69;67.42;100030.91;5067004;28;20067;-22
2021/04/08 00:21:49;;;;;;;9.95;6.30;;;;;;;5.88;66.88;100009.09;5049340;28;20400;-21
2021/04/08 00:24:14;;;;;;;10.55;5.90;;;;;;;5.94;67.27;100018.94;5048954;28;20056;-21
2021/04/08 00:26:40;;;;;;;10.23;6.13;;;;;;;5.77;67.52;100012.25;5067165;28;20036;-21
2021/04/08 00:29:05;;;;;;;8.70;5.25;;;;;;;6.15;66.40;100025.25;5048815;28;20039;-21
2021/04/08 00:31:31;;;;;;;11.85;5.88;;;;;;;6.42;66.18;100019.16;5049385;28;20044;-22
2021/04/08 00:33:56;;;;;;;10.45;6.65;;;;;;;6.48;66.09;100014.09;5066958;28;20090;-20
2021/04/08 00:36:22;;;;;;;11.80;7.80;;;;;;;6.40;65.75;100021.19;5049044;28;20051;-22
2021/04/08 00:38:48;;;;;;;14.10;7.55;;;;;;;6.25;67.74;100033.69;5067104;28;20036;-21
2021/04/08 00:41:13;;;;;;;10.95;6.88;;;;;;;6.15;67.18;100033.19;5066922;28;20024;-21
2021/04/08 00:43:39;;;;;;;11.65;7.38;;;;;;;5.98;67.50;100025.50;5067220;28;20032;-22
2021/04/08 00:46:04;;;;;;;11.07;6.82;;;;;;;5.59;68.63;100024.09;5067012;28;20028;-22
2021/04/08 00:48:30;;;;;;;9.82;6.20;;;;;;;5.35;69.93;100024.41;5066584;28;20093;-21
2021/04/08 00:50:55;;;;;;;10.25;6.22;;;;;;;5.04;70.84;100013.06;5066823;28;20527;-22
2021/04/08 00:53:22;;;;;;;10.95;6.60;;;;;;;5.14;71.08;100036.56;5067149;28;20060;-22
2021/04/08 00:55:51;;;;;;;9.43;6.15;;;;;;;5.17;71.29;100024.81;5048970;28;20455;-22
2021/04/08 00:58:17;;;;;;;9.30;5.80;;;;;;;4.90;71.67;100040.31;5049041;28;20025;-20
2021/04/08 01:00:43;;;;;;;9.10;5.70;;;;;;;4.40;72.21;100037.38;5049389;28;20041;-21
2021/04/08 01:03:10;;;;;;;8.20;4.80;;;;;;;4.23;73.60;100041.16;5048940;28;20056;-22
2021/04/08 01:05:36;;;;;;;8.48;5.18;;;;;;;4.05;73.73;100049.38;5048718;28;20058;-22
2021/04/08 01:08:01;;;;;;;8.88;5.10;;;;;;;4.05;74.80;100044.09;5066611;28;20029;-22
2021/04/08 01:10:27;;;;;;;7.28;4.38;;;;;;;3.71;74.67;100047.16;5066482;28;20051;-21
2021/04/08 01:12:55;;;;;;;8.63;4.32;;;;;;;3.25;76.75;100047.03;5066813;28;20017;-21
2021/04/08 01:15:20;;;;;;;7.32;4.30;;;;;;;3.29;76.96;100065.00;5032313;28;20082;-22
2021/04/08 01:18:11;;;;;;;6.97;4.05;;;;;;;3.03;76.76;100054.72;5066636;28;20028;-21
2021/04/08 01:20:49;;;;;;;7.28;4.35;;;;;;;3.40;75.85;100076.97;5028227;28;20063;-21
2021/04/08 01:23:33;;;;;;;7.45;4.75;;;;;;;3.57;74.92;100083.78;5070596;28;20032;-22
2021/04/08 01:26:34;;;;;;;7.53;4.35;;;;;;;3.48;75.74;100090.13;5070416;28;20082;-22
2021/04/08 01:29:21;;;;;;;7.00;4.40;;;;;;;3.35;76.84;100089.84;5038999;28;20123;-21
2021/04/08 01:31:46;;;;;;;7.20;4.55;;;;;;;2.96;77.23;100080.09;5052860;28;20039;-22
2021/04/08 01:34:13;;;;;;;9.50;5.32;;;;;;;2.90;76.99;100102.69;5035471;28;20032;-22
2021/04/08 01:36:43;;;;;;;8.43;4.43;;;;;;;2.99;77.87;100100.84;5036027;28;20032;-22
2021/04/08 01:39:10;;;;;;;8.15;4.65;;;;;;;3.22;76.56;100096.47;5052543;28;20035;-22
2021/04/08 01:41:42;;;;;;;8.68;5.20;;;;;;;2.84;79.39;100100.72;5052102;28;20039;-22
2021/04/08 01:44:29;;;;;;;10.15;5.60;;;;;;;3.17;77.14;100100.63;5035932;28;20140;-22
2021/04/08 01:46:58;;;;;;;8.73;5.38;;;;;;;3.24;76.58;100098.13;5069893;28;20033;-21
2021/04/08 01:49:25;;;;;;;8.65;4.80;;;;;;;3.22;75.62;100080.66;5052056;28;20044;-21
2021/04/08 01:51:50;;;;;;;8.02;4.50;;;;;;;2.91;77.15;100098.22;5035621;28;20543;-20
2021/04/08 01:54:16;;;;;;;9.10;5.00;;;;;;;2.97;77.16;100113.34;5035210;28;20056;-22
2021/04/08 01:56:41;;;;;;;8.65;4.78;;;;;;;3.00;77.49;100108.59;5035205;28;20111;-25
2021/04/08 01:59:07;;;;;;;7.97;4.40;;;;;;;2.88;77.70;100119.63;5069804;28;20112;-22
2021/04/08 02:01:33;;;;;;;7.00;4.15;;;;;;;2.65;78.88;100120.31;5051980;28;20035;-21
2021/04/08 02:03:58;;;;;;;8.57;4.72;;;;;;;2.61;79.64;100111.91;5035798;28;20044;-21
2021/04/08 02:06:25;;;;;;;7.85;5.00;;;;;;;2.54;80.02;100095.16;5051483;28;20032;-22
2021/04/08 02:08:51;;;;;;;8.45;4.95;;;;;;;2.90;79.26;100117.63;5035016;28;20062;-21
2021/04/08 02:11:16;;;;;;;9.15;5.43;;;;;;;2.72;79.44;100118.66;5035410;28;20039;-21
2021/04/08 02:13:44;;;;;;;10.95;5.10;;;;;;;2.73;77.67;100128.19;5069469;28;20036;-21
2021/04/08 02:16:09;;;;;;;8.55;5.40;;;;;;;2.81;78.43;100120.28;5051180;28;20528;-20
2021/04/08 02:18:36;;;;;;;9.70;5.72;;;;;;;2.71;77.48;100129.34;5035031;28;20126;-20
2021/04/08 02:21:02;;;;;;;10.02;5.63;;;;;;;2.67;78.42;100107.78;5069636;28;20039;-21
2021/04/08 02:23:29;;;;;;;20.05;14.23;;;;;;;2.79;79.09;100121.44;5051442;28;20032;-22
2021/04/08 02:25:54;;;;;;;30.58;25.05;;;;;;;3.00;78.19;100120.91;5051791;28;20028;-22
2021/04/08 02:28:20;;;;;;;32.67;22.88;;;;;;;2.94;77.79;100124.22;5034604;28;20032;-21
2021/04/08 02:30:47;;;;;;;21.73;13.25;;;;;;;2.81;77.34;100128.19;5069043;28;20029;-21
2021/04/08 02:33:19;;;;;;;21.25;14.80;;;;;;;3.11;77.51;100139.00;5051268;28;20032;-21
2021/04/08 02:35:45;;;;;;;10.80;5.85;;;;;;;3.15;76.45;100121.88;5069207;28;20029;-20
2021/04/08 02:38:10;;;;;;;10.38;6.05;;;;;;;3.35;76.10;100147.81;5051042;28;20407;-20
2021/04/08 02:40:36;;;;;;;9.88;6.38;;;;;;;3.30;76.42;100135.16;5069221;28;20033;-21
2021/04/08 02:43:02;;;;;;;11.05;6.68;;;;;;;3.34;76.48;100125.09;5069138;28;20107;-21
2021/04/08 02:45:27;;;;;;;11.00;7.15;;;;;;;3.30;75.40;100150.16;5068864;28;20031;-21
2021/04/08 02:47:53;;;;;;;10.07;6.80;;;;;;;3.32;75.88;100149.00;5068706;28;20035;-22
2021/04/08 02:50:18;;;;;;;10.32;6.78;;;;;;;3.33;75.53;100147.19;5068173;28;20052;-21
2021/04/08 02:53:02;;;;;;;11.50;7.55;;;;;;;3.46;74.71;100141.38;5051169;28;20028;-20
2021/04/08 02:55:52;;;;;;;9.95;6.35;;;;;;;3.58;76.04;100159.28;5050820;28;20115;-22
2021/04/08 02:58:18;;;;;;;9.68;6.15;;;;;;;3.28;76.04;100166.13;5050764;28;20024;-22
2021/04/08 03:00:53;;;;;;;10.60;5.90;;;;;;;3.08;77.27;100170.13;5034151;28;20035;-22
2021/04/08 03:03:21;;;;;;;10.00;5.60;;;;;;;3.17;77.28;100150.69;5050809;28;20473;-21
2021/04/08 03:05:46;;;;;;;10.88;5.70;;;;;;;3.44;76.29;100148.66;5050698;28;20436;-21
2021/04/08 03:08:13;;;;;;;11.07;6.47;;;;;;;3.36;74.75;100144.22;5050322;28;20029;-22
2021/04/08 03:10:38;;;;;;;11.18;6.65;;;;;;;3.69;75.56;100181.00;5034550;28;20470;-22
2021/04/08 03:13:04;;;;;;;15.45;8.02;;;;;;;3.62;74.74;100165.88;5068525;28;20510;-21
2021/04/08 03:15:32;;;;;;;15.05;8.63;;;;;;;4.01;74.06;100180.84;5068497;28;20604;-19
2021/04/08 03:17:58;;;;;;;11.87;6.47;;;;;;;3.90;74.28;100181.22;5034050;28;20107;-21
2021/04/08 03:20:24;;;;;;;11.10;5.95;;;;;;;3.95;74.41;100175.47;5033772;28;20492;-20
2021/04/08 03:22:50;;;;;;;11.13;6.50;;;;;;;4.45;73.52;100187.34;5033841;28;20043;-21
2021/04/08 03:25:16;;;;;;;11.35;6.50;;;;;;;4.27;73.43;100190.28;5034035;28;20481;-22
2021/04/08 03:27:41;;;;;;;13.32;6.55;;;;;;;4.58;72.83;100211.38;5049990;28;20504;-21
2021/04/08 03:30:10;;;;;;;10.95;6.30;;;;;;;4.73;72.04;100194.75;5049821;28;20589;-20
2021/04/08 03:32:36;;;;;;;11.07;6.45;;;;;;;4.81;72.22;100203.41;5050250;28;20029;-21
2021/04/08 03:35:01;;;;;;;12.60;7.43;;;;;;;4.80;72.26;100201.78;5068059;28;20889;-21
2021/04/08 03:37:27;;;;;;;11.60;6.93;;;;;;;4.73;71.56;100221.97;5049933;28;20058;-22
2021/04/08 03:39:53;;;;;;;13.55;7.93;;;;;;;4.16;70.78;100214.44;5067785;28;20113;-21
2021/04/08 03:42:18;;;;;;;17.00;9.68;;;;;;;3.63;73.86;100240.53;5049100;28;20035;-21
2021/04/08 03:44:44;;;;;;;12.25;7.30;;;;;;;2.87;74.76;100239.16;5049428;28;20033;-21
2021/04/08 03:47:10;;;;;;;10.77;6.93;;;;;;;2.44;77.27;100252.44;5049645;28;20064;-21
2021/04/08 03:49:35;;;;;;;17.17;9.77;;;;;;;2.53;76.75;100242.72;5049566;28;20534;-20
2021/04/08 03:52:05;;;;;;;14.73;8.98;;;;;;;2.72;76.83;100263.50;5067570;28;20033;-21
2021/04/08 03:54:31;;;;;;;19.13;11.85;;;;;;;2.76;76.09;100259.56;5049710;28;20587;-21
2021/04/08 03:56:56;;;;;;;18.65;11.40;;;;;;;2.24;78.50;100264.22;5049739;28;20119;-20
2021/04/08 03:59:24;;;;;;;17.73;11.10;;;;;;;2.40;77.30;100270.34;5033211;28;20905;-21
2021/04/08 04:01:50;;;;;;;18.02;10.18;;;;;;;2.27;77.47;100270.00;5050241;28;20034;-19
2021/04/08 04:04:15;;;;;;;19.95;12.07;;;;;;;2.46;76.80;100263.63;5032990;28;20147;-22
2021/04/08 04:06:42;;;;;;;22.02;15.10;;;;;;;2.56;76.74;100259.03;5049601;28;20074;-21
2021/04/08 04:09:12;;;;;;;14.63;10.15;;;;;;;2.46;76.81;100281.22;5049661;28;20458;-22
2021/04/08 04:11:39;;;;;;;15.68;10.90;;;;;;;2.52;76.75;100259.53;5049444;28;20031;-21
2021/04/08 04:14:07;;;;;;;23.83;14.40;;;;;;;3.14;75.62;100269.59;5067665;28;20109;-21
2021/04/08 04:16:32;;;;;;;16.63;11.00;;;;;;;2.94;76.02;100292.81;5067055;28;20038;-20
2021/04/08 04:18:58;;;;;;;15.43;10.20;;;;;;;3.08;74.87;100299.25;5049562;28;20123;-22
2021/04/08 04:21:23;;;;;;;16.20;10.70;;;;;;;3.32;75.10;100286.06;5067460;28;20063;-22
2021/04/08 04:23:49;;;;;;;13.48;8.88;;;;;;;3.10;73.87;100270.91;5067134;28;20432;-22
2021/04/08 04:26:14;;;;;;;14.38;8.73;;;;;;;3.27;74.56;100284.91;5066831;28;20059;-21
2021/04/08 04:28:40;;;;;;;20.73;12.32;;;;;;;3.36;75.46;100291.84;5067071;28;20419;-21
2021/04/08 04:31:06;;;;;;;18.92;11.93;;;;;;;3.62;74.34;100297.72;5067162;28;20508;-20
2021/04/08 04:33:31;;;;;;;15.50;10.05;;;;;;;3.51;73.16;100308.59;5067170;28;20025;-20
2021/04/08 04:35:57;;;;;;;16.13;10.18;;;;;;;3.76;73.71;100313.84;5067077;28;20035;-22
2021/04/08 04:38:22;;;;;;;14.95;9.60;;;;;;;4.09;72.47;100297.94;5048942;28;20036;-21
2021/04/08 04:40:48;;;;;;;14.23;9.23;;;;;;;4.48;70.24;100320.88;5067152;28;20028;-21
2021/04/08 04:43:14;;;;;;;13.25;8.82;;;;;;;4.12;71.04;100303.69;5067158;28;20040;-22
2021/04/08 04:45:39;;;;;;;12.70;8.18;;;;;;;3.86;72.97;100337.41;5066912;28;20086;-22
2021/04/08 04:48:05;;;;;;;12.27;7.93;;;;;;;3.79;71.62;100322.25;5066718;28;20098;-21
2021/04/08 04:50:31;;;;;;;14.52;7.78;;;;;;;3.71;72.79;100332.00;5066401;28;20055;-21
2021/04/08 04:52:56;;;;;;;13.10;7.93;;;;;;;3.67;72.77;100343.88;5032412;28;20024;-19
2021/04/08 04:55:22;;;;;;;9.60;7.30;;;;;;;3.72;73.46;100345.03;5069944;28;20036;-21
2021/04/08 04:57:47;;;;;;;13.15;8.05;;;;;;;3.59;74.63;100363.97;5071046;28;20086;-20
2021/04/08 05:00:14;;;;;;;12.13;8.00;;;;;;;3.55;73.88;100338.94;5070696;28;20071;-22
2021/04/08 05:02:39;;;;;;;11.27;7.65;;;;;;;3.52;74.24;100333.19;5070990;28;20031;-26
2021/04/08 05:05:05;;;;;;;14.23;8.57;;;;;;;3.63;74.63;100352.09;5070636;28;20037;-20
2021/04/08 05:07:31;;;;;;;11.60;8.25;;;;;;;3.62;75.08;100355.75;5070774;28;20029;-21
2021/04/08 05:09:57;;;;;;;28.55;19.55;;;;;;;3.72;75.67;100362.66;5070683;28;20100;-20
2021/04/08 05:12:22;;;;;;;45.95;32.35;;;;;;;3.96;74.26;100367.06;5070679;28;20031;-21
2021/04/08 05:14:49;;;;;;;76.25;51.85;;;;;;;4.00;72.92;100363.94;5070675;28;20851;-21
2021/04/08 05:17:15;;;;;;;56.80;39.88;;;;;;;3.99;72.98;100357.00;5070668;28;20024;-21
2021/04/08 05:19:40;;;;;;;82.68;53.10;;;;;;;3.95;73.95;100373.34;5070537;28;20039;-21
2021/04/08 05:22:06;;;;;;;28.98;18.05;;;;;;;3.96;74.11;100377.63;5052189;28;20036;-19
2021/04/08 05:24:31;;;;;;;59.13;34.47;;;;;;;3.94;73.39;100346.16;5070386;28;20039;-22
2021/04/08 05:26:57;;;;;;;88.13;49.72;;;;;;;3.80;72.84;100370.56;5070568;28;20032;-21
2021/04/08 05:29:22;;;;;;;108.93;64.07;;;;;;;3.91;74.23;100386.06;5070306;28;20032;-21
2021/04/08 05:31:48;;;;;;;107.05;62.25;;;;;;;3.93;74.74;100383.25;5070703;28;20032;-20
2021/04/08 05:34:13;;;;;;;71.82;46.38;;;;;;;4.02;73.58;100382.22;5070098;28;20051;-20
2021/04/08 05:36:39;;;;;;;66.65;41.67;;;;;;;4.19;73.84;100385.69;5070336;28;20083;-21
2021/04/08 05:39:05;;;;;;;49.53;32.90;;;;;;;3.77;75.15;100378.81;5070255;28;20024;-21
2021/04/08 05:41:30;;;;;;;49.75;35.28;;;;;;;3.63;74.54;100357.38;5070171;28;20036;-21
2021/04/08 05:43:56;;;;;;;44.67;30.77;;;;;;;3.73;75.11;100366.94;5069816;28;20452;-21
2021/04/08 05:46:22;;;;;;;24.50;17.20;;;;;;;3.42;75.69;100354.44;5069939;28;20037;-21
2021/04/08 05:48:47;;;;;;;52.38;39.90;;;;;;;3.46;76.93;100374.22;5069870;28;20436;-19
2021/04/08 05:51:13;;;;;;;32.42;22.67;;;;;;;3.38;75.81;100363.66;5069023;28;20817;-21
2021/04/08 05:53:38;;;;;;;41.75;27.40;;;;;;;3.61;75.64;100379.66;5068534;28;20401;-22
2021/04/08 05:56:04;;;;;;;50.80;37.00;;;;;;;3.69;76.12;100376.19;5068749;28;20561;-21
2021/04/08 05:58:30;;;;;;;26.05;17.42;;;;;;;3.91;74.45;100372.84;5068506;28;20401;-21
2021/04/08 06:00:56;;;;;;;54.17;39.92;;;;;;;3.82;74.01;100371.22;5068755;28;20039;-22
2021/04/08 06:03:22;;;;;;;18.02;10.77;;;;;;;3.42;76.45;100370.25;5068404;28;20033;-21
2021/04/08 06:05:48;;;;;;;23.10;13.38;;;;;;;3.35;77.06;100364.00;5068223;28;20115;-21
2021/04/08 06:08:14;;;;;;;20.60;12.25;;;;;;;3.38;76.21;100364.50;5068029;28;20099;-21
2021/04/08 06:10:39;;;;;;;18.30;11.80;;;;;;;3.47;75.94;100367.94;5068781;28;20554;-21
2021/04/08 06:13:05;;;;;;;18.83;11.35;;;;;;;3.29;76.56;100364.63;5068613;28;20032;-20
2021/04/08 06:15:31;;;;;;;16.10;10.15;;;;;;;3.44;75.46;100365.66;5068450;28;20037;-21
2021/04/08 06:17:56;;;;;;;21.42;10.10;;;;;;;3.31;75.33;100355.59;5068296;28;20496;-21
2021/04/08 06:20:24;;;;;;;13.77;9.50;;;;;;;3.29;75.92;100354.09;5050046;28;20064;-22
2021/04/08 06:22:53;;;;;;;16.17;10.73;;;;;;;3.55;75.79;100346.84;5050478;28;20078;-22
2021/04/08 06:25:19;;;;;;;16.10;11.15;;;;;;;3.36;76.40;100355.91;5068298;28;20543;-22
2021/04/08 06:27:44;;;;;;;16.80;10.65;;;;;;;3.29;76.41;100348.81;5068182;28;20031;-22
2021/04/08 06:30:10;;;;;;;17.70;11.45;;;;;;;3.62;75.58;100361.03;5049784;28;20028;-21
2021/04/08 06:32:36;;;;;;;21.02;14.07;;;;;;;3.55;76.02;100344.19;5068158;28;20025;-21
2021/04/08 06:35:02;;;;;;;25.05;14.90;;;;;;;3.63;74.26;100341.56;5068164;28;20032;-21
2021/04/08 06:37:27;;;;;;;26.38;17.30;;;;;;;3.86;75.40;100356.69;5067933;28;20024;-20
2021/04/08 06:39:53;;;;;;;26.63;15.82;;;;;;;3.59;74.47;100368.44;5067248;28;20025;-21
2021/04/08 06:42:20;;;;;;;20.17;12.32;;;;;;;3.84;75.39;100390.34;5037410;28;20017;-21
2021/04/08 06:44:50;;;;;;;18.55;11.48;;;;;;;3.88;74.34;100365.25;5028886;28;20040;-22
2021/04/08 06:47:28;;;;;;;14.82;9.73;;;;;;;4.20;74.27;100384.66;5047686;28;20397;-22
2021/04/08 06:49:55;;;;;;;23.77;14.77;;;;;;;4.77;70.30;100395.00;4984673;28;877463;-23
2021/04/08 06:52:20;;;;;;;83.68;43.42;;;;;;;5.27;70.63;100377.06;5030943;28;20489;-22
2021/04/08 06:54:46;;;;;;;29.85;17.58;;;;;;;5.26;69.17;100370.09;5014441;28;20040;-22
2021/04/08 06:57:18;;;;;;;17.65;11.10;;;;;;;5.34;68.31;100367.41;5014527;28;20033;-21
2021/04/08 06:59:47;;;;;;;41.88;15.90;;;;;;;5.61;64.93;100368.66;5048530;28;20032;-24
2021/04/08 07:02:15;;;;;;;20.55;11.40;;;;;;;5.43;68.93;100386.66;5048472;28;20048;-23
2021/04/08 07:04:40;;;;;;;27.85;12.43;;;;;;;5.86;66.89;100386.13;5048402;28;20056;-22
2021/04/08 07:07:06;;;;;;;37.63;15.38;;;;;;;5.52;67.82;100393.53;5048534;28;20033;-23
2021/04/08 07:09:32;;;;;;;21.77;11.55;;;;;;;5.50;67.40;100376.22;5030942;28;20021;-23
2021/04/08 07:11:59;;;;;;;29.33;13.63;;;;;;;5.94;67.25;100394.00;5048485;28;20413;-23
2021/04/08 07:14:25;;;;;;;16.23;11.13;;;;;;;6.13;68.05;100390.88;5048131;28;20520;-22
2021/04/08 07:16:50;;;;;;;24.27;13.13;;;;;;;6.47;66.41;100399.25;5029692;28;20271;-22
2021/04/08 07:19:16;;;;;;;17.13;10.88;;;;;;;6.57;64.30;100410.41;5048172;28;20033;-22
2021/04/08 07:21:41;;;;;;;16.17;11.25;;;;;;;6.77;63.78;100397.41;5030535;28;20067;-21
2021/04/08 07:24:16;;;;;;;16.25;9.98;;;;;;;6.76;62.48;100415.16;5030358;28;20129;-21
2021/04/08 07:27:01;;;;;;;15.68;11.05;;;;;;;6.67;63.73;100432.16;5048024;28;20056;-22
2021/04/08 07:29:38;;;;;;;18.25;12.05;;;;;;;6.48;64.02;100430.03;5047979;28;20400;-23
2021/04/08 07:32:15;;;;;;;15.90;11.07;;;;;;;6.40;62.79;100423.84;5048054;28;20021;-22
2021/04/08 07:34:40;;;;;;;14.23;10.85;;;;;;;6.29;63.12;100439.34;5031218;28;20021;-22
2021/04/08 07:37:06;;;;;;;27.20;17.45;;;;;;;6.64;64.64;100443.13;5047955;28;20036;-22
2021/04/08 07:39:42;;;;;;;28.58;14.63;;;;;;;6.95;64.08;100444.72;5048221;28;20032;-22
2021/04/08 07:42:12;;;;;;;21.02;12.73;;;;;;;7.37;63.38;100451.91;5047659;28;20065;-22
2021/04/08 07:44:48;;;;;;;24.60;14.27;;;;;;;7.22;60.88;100457.28;5013954;28;20390;-22
2021/04/08 07:47:16;;;;;;;22.60;13.80;;;;;;;7.11;61.28;100449.81;5047609;28;20028;-21
2021/04/08 07:49:42;;;;;;;16.73;11.70;;;;;;;6.99;63.70;100446.00;5047294;28;20147;-23
2021/04/08 07:52:26;;;;;;;15.50;10.85;;;;;;;7.48;61.45;100465.69;5013391;28;20111;-21
2021/04/08 07:54:59;;;;;;;14.98;10.48;;;;;;;7.61;62.50;100482.59;5047663;28;20033;-23
2021/04/08 07:57:25;;;;;;;17.25;11.93;;;;;;;7.57;61.23;100486.63;5047504;28;20032;-22
2021/04/08 07:59:50;;;;;;;19.15;13.63;;;;;;;7.40;61.95;100477.28;5047796;28;20504;-21
2021/04/08 08:02:16;;;;;;;15.65;10.63;;;;;;;7.82;63.47;100478.28;5029568;28;20535;-22
2021/04/08 08:04:41;;;;;;;16.55;10.13;;;;;;;7.97;61.32;100464.94;5029686;28;20143;-23
2021/04/08 08:07:07;;;;;;;14.52;9.43;;;;;;;8.32;59.24;100476.44;5047421;28;20059;-22
2021/04/08 08:09:35;;;;;;;21.65;17.13;;;;;;;8.41;59.41;100471.84;5029580;28;20021;-22
2021/04/08 08:12:10;;;;;;;17.52;12.65;;;;;;;8.25;59.90;100467.59;5047374;28;20025;-22
2021/04/08 08:14:39;;;;;;;15.80;11.10;;;;;;;8.56;60.48;100466.41;5013061;28;20560;-22
2021/04/08 08:17:06;;;;;;;15.90;13.55;;;;;;;9.09;57.07;100479.94;5029925;28;20393;-23
2021/04/08 08:19:31;;;;;;;12.45;8.45;;;;;;;8.65;57.23;100460.72;5029380;28;20051;-22
2021/04/08 08:21:57;;;;;;;13.48;8.65;;;;;;;8.81;55.57;100462.25;5047161;28;20033;-23
2021/04/08 08:24:23;;;;;;;14.15;8.65;;;;;;;9.14;56.83;100468.72;5046912;28;20096;-23
2021/04/08 08:26:49;;;;;;;12.10;8.38;;;;;;;9.06;55.54;100453.75;5029308;28;20055;-23
2021/04/08 08:29:17;;;;;;;15.25;9.05;;;;;;;8.67;56.25;100481.81;5046971;28;20033;-21
2021/04/08 08:31:58;;;;;;;23.97;12.87;;;;;;;8.52;58.59;100494.38;5047155;28;20033;-23
2021/04/08 08:34:33;;;;;;;14.98;9.18;;;;;;;8.46;58.38;100477.41;5046646;28;20087;-24
2021/04/08 08:37:02;;;;;;;15.52;9.75;;;;;;;8.30;57.26;100494.44;5047002;28;20037;-23
2021/04/08 08:39:48;;;;;;;17.77;10.23;;;;;;;8.45;59.15;100507.63;5046994;28;20017;-23
2021/04/08 08:42:23;;;;;;;12.38;8.82;;;;;;;8.35;58.12;100494.66;5046728;28;20123;-23
2021/04/08 08:44:49;;;;;;;14.00;8.85;;;;;;;8.58;58.57;100502.41;5029520;28;20049;-23
2021/04/08 08:47:28;;;;;;;14.40;8.98;;;;;;;8.48;57.70;100477.19;5029210;28;20036;-23
2021/04/08 08:50:00;;;;;;;12.75;8.00;;;;;;;8.23;56.20;100501.50;5046585;28;20530;-21
2021/04/08 08:52:51;;;;;;;15.75;10.57;;;;;;;8.23;59.64;100512.13;5046839;28;20082;-23
2021/04/08 08:55:19;;;;;;;14.65;8.70;;;;;;;8.32;59.03;100511.00;5047098;28;20036;-23
2021/04/08 08:57:55;;;;;;;15.40;9.25;;;;;;;8.04;59.13;100519.75;5046883;28;20027;-23
2021/04/08 09:00:24;;;;;;;15.82;9.68;;;;;;;8.19;58.35;100495.78;5029170;28;20041;-23
2021/04/08 09:02:49;;;;;;;;;;;;;;;8.38;58.37;100531.47;5047380;28;20837;-22
2021/04/08 09:05:17;;;;;;;14.65;8.45;;;;;;;8.01;58.83;100509.53;5046847;28;19924;-22
2021/04/08 09:07:44;;;;;;;12.38;7.47;;;;;;;8.34;57.47;100524.09;5046911;28;20037;-23
2021/04/08 09:10:11;;;;;;;11.98;8.05;;;;;;;8.37;58.07;100508.56;5029099;28;20041;-23
2021/04/08 09:12:37;;;;;;;18.52;11.15;;;;;;;8.31;58.52;100527.94;5029315;28;20846;-22
2021/04/08 09:15:05;;;;;;;22.63;11.40;;;;;;;8.28;53.39;100531.00;5046704;28;20029;-22
2021/04/08 09:17:42;;;;;;;52.10;24.17;;;;;;;8.47;56.53;100534.84;5046971;28;20586;-22
2021/04/08 09:20:10;;;;;;;9.98;7.30;;;;;;;8.57;53.25;100516.72;5028783;28;20133;-22
2021/04/08 09:22:55;;;;;;;11.05;6.93;;;;;;;8.92;53.00;100542.50;5046875;28;20091;-22
2021/04/08 09:25:21;;;;;;;11.75;7.53;;;;;;;8.98;53.74;100549.69;5029807;28;20112;-22
2021/04/08 09:27:56;;;;;;;9.52;6.68;;;;;;;8.87;54.56;100539.59;5046585;28;20085;-22
2021/04/08 09:33:42;;;;;;;13.35;8.38;;;;;;;8.10;54.14;100550.03;5040720;28;20037;-22
2021/04/08 09:36:23;;;;;;;12.13;8.38;;;;;;;8.28;54.37;100552.25;5046249;28;20017;-22
2021/04/08 09:38:50;;;;;;;12.23;6.95;;;;;;;8.61;50.58;100522.47;5046189;28;20041;-22
2021/04/08 09:41:15;;;;;;;9.75;7.25;;;;;;;9.32;49.29;100543.50;5031170;28;20056;-22
2021/04/08 09:43:41;;;;;;;10.27;6.30;;;;;;;9.76;49.84;100538.72;5032428;28;20075;-22
2021/04/08 09:46:08;;;;;;;9.20;5.95;;;;;;;9.51;47.50;100528.63;5015305;28;20040;-22
2021/04/08 09:48:50;;;;;;;12.75;7.50;;;;;;;9.75;47.81;100559.22;5032425;28;20175;-22
2021/04/08 09:51:35;;;;;;;81.03;56.03;;;;;;;9.98;48.20;100558.03;5049830;28;20386;-22
2021/04/08 09:54:05;;;;;;;10.48;7.03;;;;;;;9.85;49.11;100564.16;5050030;28;20036;-22
2021/04/08 09:56:48;;;;;;;8.95;5.70;;;;;;;8.58;49.55;100560.91;5032482;28;20028;-23
2021/04/08 09:59:15;;;;;;;8.02;5.22;;;;;;;8.28;49.71;100557.56;5049818;28;20036;-22
2021/04/08 10:01:41;;;;;;;7.45;4.75;;;;;;;8.14;50.93;100563.78;5032026;28;20399;-22
2021/04/08 10:04:25;;;;;;;8.40;5.07;;;;;;;8.61;49.76;100551.72;5049532;28;20037;-22
2021/04/08 10:07:04;;;;;;;9.43;5.38;;;;;;;8.80;49.11;100559.00;5049998;28;20028;-22
2021/04/08 10:09:30;;;;;;;9.05;4.30;;;;;;;9.44;47.08;100562.41;5049982;28;20491;-22
2021/04/08 10:11:55;;;;;;;12.05;6.30;;;;;;;9.19;46.29;100564.72;5049448;28;20072;-22
2021/04/08 10:14:28;;;;;;;11.93;6.28;;;;;;;9.31;45.79;100567.66;5031566;28;20033;-22
2021/04/08 10:17:09;;;;;;;7.65;4.47;;;;;;;9.38;45.35;100568.53;5049586;28;20025;-21
2021/04/08 10:19:40;;;;;;;10.68;5.43;;;;;;;8.73;47.98;100574.09;5049411;28;20058;-22
2021/04/08 10:22:06;;;;;;;8.15;4.63;;;;;;;8.38;47.54;100584.63;5032153;28;20397;-22
2021/04/08 10:24:36;;;;;;;7.68;3.78;;;;;;;7.95;48.35;100574.03;5031861;28;20032;-22
2021/04/08 10:27:02;;;;;;;5.97;4.57;;;;;;;7.80;53.73;100591.81;5049568;28;20043;-21
2021/04/08 10:29:33;;;;;;;10.93;5.50;;;;;;;7.68;53.23;100583.53;5031499;28;20029;-23
2021/04/08 10:32:00;;;;;;;7.20;4.50;;;;;;;7.10;53.54;100580.78;5049208;28;20033;-23
2021/04/08 10:34:33;;;;;;;8.35;4.75;;;;;;;6.93;52.52;100576.66;5048910;28;20039;-22
2021/04/08 10:36:58;;;;;;;14.75;7.70;;;;;;;7.34;56.71;100581.50;5049458;28;20040;-22
2021/04/08 10:39:26;;;;;;;13.45;7.75;;;;;;;7.22;54.06;100579.31;5049153;28;20029;-22
2021/04/08 10:42:05;;;;;;;11.18;6.78;;;;;;;7.58;55.91;100581.19;5049331;28;20889;-22
2021/04/08 10:44:40;;;;;;;12.35;5.88;;;;;;;7.67;52.71;100586.38;5048935;28;20874;-22
2021/04/08 10:47:32;;;;;;;11.18;5.13;;;;;;;7.70;51.82;100583.34;5031253;28;20112;-22
2021/04/08 10:49:58;;;;;;;7.78;4.07;;;;;;;8.12;50.46;100587.06;5048018;28;20195;-23
2021/04/08 10:52:24;;;;;;;6.75;4.20;;;;;;;8.31;51.90;100583.75;5047550;28;20028;-21
2021/04/08 10:54:54;;;;;;;5.90;3.70;;;;;;;8.35;50.63;100577.03;5048812;28;20064;-21
2021/04/08 10:57:20;;;;;;;8.50;4.22;;;;;;;8.29;47.64;100567.16;5048700;28;20036;-23
2021/04/08 10:59:47;;;;;;;13.05;5.18;;;;;;;8.72;49.82;100564.47;5048697;28;20477;-23
2021/04/08 11:02:18;;;;;;;10.05;5.63;;;;;;;8.71;48.58;100583.28;5048633;28;20041;-22
2021/04/08 11:04:44;;;;;;;12.65;6.45;;;;;;;9.13;47.38;100579.63;5048752;28;20036;-22
2021/04/08 11:07:09;;;;;;;9.07;4.82;;;;;;;9.16;48.95;100599.72;5048373;28;20028;-23
2021/04/08 11:09:35;;;;;;;12.50;6.47;;;;;;;9.07;46.71;100588.41;5030436;28;20036;-23
2021/04/08 11:12:13;;;;;;;9.13;5.20;;;;;;;8.96;47.68;100586.31;5048378;28;20081;-22
2021/04/08 11:14:39;;;;;;;8.95;3.92;;;;;;;8.73;48.40;100587.38;5032573;28;20033;-22
2021/04/08 11:17:04;;;;;;;7.00;4.68;;;;;;;8.76;46.71;100581.66;4997946;28;20033;-22
2021/04/08 11:19:30;;;;;;;7.35;4.60;;;;;;;8.88;49.60;100589.13;5048410;28;20132;-22
2021/04/08 11:21:55;;;;;;;10.98;5.38;;;;;;;8.40;50.25;100582.59;5048379;28;20064;-22
2021/04/08 11:24:21;;;;;;;8.02;5.03;;;;;;;8.56;46.81;100580.69;5013837;28;20032;-22
2021/04/08 11:26:50;;;;;;;11.20;6.85;;;;;;;8.74;48.51;100588.19;5030347;28;20036;-23
2021/04/08 11:29:23;;;;;;;10.07;5.40;;;;;;;8.63;48.12;100558.47;5047931;28;20029;-23
2021/04/08 11:32:10;;;;;;;7.88;4.63;;;;;;;8.77;47.47;100588.66;5048427;28;20519;-21
2021/04/08 11:34:50;;;;;;;7.30;3.30;;;;;;;9.21;45.55;100595.47;5030695;28;20104;-22